Terminal Aerodrome Forecast
Issued by NWS

Home | Current Version | Previous Version | Graphics & Text | Print | Product List | Glossary On
Versions: 1 2 3 4 5 6 7 8 9 10 11 12 13
000
FTUS43 KMPX 111136
TAFRWF
TAF
KRWF 111136Z 1112/1212 27011KT P6SM VCSH OVC050
     FM111400 30013G20KT P6SM VCSH OVC025
     FM111500 31016G27KT P6SM VCSH OVC012
     FM111700 32020G33KT P6SM OVC017
     FM120000 33018G31KT P6SM FEW025
     FM120500 32012G20KT P6SM SKC
     FM120800 31008KT P6SM SKC=

USA.gov is the U.S. government's official web portal to all federal, state and local government web resources and services.